Time;durP1;ratioP1;P1;durP2;ratioP2;P2;SDS_P1;SDS_P2;PMS_P1;PMS_P2;Temp;Humidity;BMP_temperature;BMP_pressure;BME280_temperature;BME280_humidity;BME280_pressure;Samples;Min_cycle;Max_cycle;Signal;HPM_P1;HPM_P2
2022/03/24 00:01:55;;;;;;;30.63;11.65;;;;;;;0.53;57.39;100158.66;5076634;28;20052;-78
2022/03/24 00:04:22;;;;;;;31.52;11.20;;;;;;;0.67;57.46;100197.91;5074987;28;20580;-79
2022/03/24 00:06:49;;;;;;;31.50;10.30;;;;;;;0.41;57.78;100145.25;5076209;28;20110;-79
2022/03/24 00:09:16;;;;;;;38.00;12.00;;;;;;;0.61;58.00;100192.47;5075952;28;20052;-79
2022/03/24 00:11:43;;;;;;;31.08;12.25;;;;;;;0.55;57.98;100187.91;5075674;28;20525;-79
2022/03/24 00:14:10;;;;;;;32.20;9.82;;;;;;;0.40;57.61;100146.03;5074551;28;20048;-80
2022/03/24 00:16:37;;;;;;;29.23;11.02;;;;;;;0.54;57.79;100165.59;5076751;28;20497;-79
2022/03/24 00:19:03;;;;;;;24.40;10.23;;;;;;;0.56;57.77;100171.69;5075604;28;20079;-78
2022/03/24 00:21:31;;;;;;;32.83;11.13;;;;;;;0.63;57.85;100179.69;5074915;28;20056;-77
2022/03/24 00:23:58;;;;;;;30.55;10.00;;;;;;;0.53;57.87;100163.81;5076011;28;20064;-79
2022/03/24 00:26:24;;;;;;;25.45;11.07;;;;;;;0.43;57.66;100138.50;5075892;28;20056;-79
2022/03/24 00:28:52;;;;;;;31.10;10.65;;;;;;;0.68;57.47;100167.94;5075749;28;20060;-77
2022/03/24 00:31:19;;;;;;;25.67;10.27;;;;;;;0.71;57.48;100166.41;5074788;28;20505;-78
2022/03/24 00:33:46;;;;;;;26.35;11.43;;;;;;;0.74;57.44;100156.25;5076556;28;20044;-79
2022/03/24 00:36:14;;;;;;;27.70;11.98;;;;;;;0.80;57.46;100158.22;5073967;28;20430;-78
2022/03/24 00:38:41;;;;;;;23.45;9.63;;;;;;;0.79;57.72;100162.47;5076068;28;20086;-78
2022/03/24 00:41:08;;;;;;;30.05;11.07;;;;;;;0.78;57.48;100158.16;5075361;28;20065;-78
2022/03/24 00:43:35;;;;;;;31.10;11.45;;;;;;;0.64;57.80;100133.47;5075502;28;20131;-78
2022/03/24 00:46:04;;;;;;;34.33;11.68;;;;;;;0.69;57.74;100146.53;5073476;28;20072;-76
2022/03/24 00:48:31;;;;;;;30.73;10.32;;;;;;;0.63;58.02;100131.72;5073460;28;20135;-79
2022/03/24 00:50:59;;;;;;;30.63;10.65;;;;;;;0.53;58.15;100121.78;5074424;28;20098;-79
2022/03/24 00:53:26;;;;;;;33.85;11.35;;;;;;;0.63;58.39;100130.84;5074030;28;20063;-78
2022/03/24 00:55:55;;;;;;;35.75;11.75;;;;;;;0.49;57.81;100105.34;5075124;28;20060;-81
2022/03/24 00:58:22;;;;;;;32.10;13.33;;;;;;;0.29;57.83;100058.13;5073979;28;20472;-78
2022/03/24 01:00:49;;;;;;;27.52;12.63;;;;;;;0.72;57.29;100137.28;5073947;28;20052;-80
2022/03/24 01:03:16;;;;;;;30.33;11.15;;;;;;;0.73;57.45;100140.72;5074902;28;20072;-81
2022/03/24 01:05:44;;;;;;;44.15;12.30;;;;;;;0.50;57.98;100090.81;5075973;28;20056;-79
2022/03/24 01:08:11;;;;;;;30.05;13.23;;;;;;;0.63;57.63;100128.28;5076056;28;20106;-79
2022/03/24 01:10:38;;;;;;;25.60;10.68;;;;;;;0.59;57.54;100127.22;5076498;28;20049;-81
2022/03/24 01:13:05;;;;;;;32.40;12.30;;;;;;;0.59;57.45;100122.09;5077274;28;20059;-80
2022/03/24 01:15:32;;;;;;;28.83;12.25;;;;;;;0.60;57.38;100119.59;5099863;28;20076;-79
2022/03/24 01:18:00;;;;;;;38.70;11.77;;;;;;;0.60;57.61;100111.88;5095475;28;20060;-77
2022/03/24 01:20:30;;;;;;;31.65;10.52;;;;;;;0.57;57.85;100108.28;5058812;28;20098;-79
2022/03/24 01:22:59;;;;;;;28.70;10.38;;;;;;;0.29;58.03;100067.53;5076830;28;20052;-77
2022/03/24 01:25:27;;;;;;;29.50;11.15;;;;;;;0.46;58.02;100105.19;5075430;28;20048;-79
2022/03/24 01:27:54;;;;;;;32.10;11.30;;;;;;;0.33;58.44;100083.19;5074525;28;20101;-77
2022/03/24 01:30:21;;;;;;;23.75;10.35;;;;;;;0.10;58.45;100055.50;5075264;28;20056;-80
2022/03/24 01:32:48;;;;;;;33.70;10.10;;;;;;;0.32;58.69;100112.28;5075071;28;20372;-79
2022/03/24 01:35:16;;;;;;;23.05;10.20;;;;;;;0.29;58.69;100108.66;5074354;28;20052;-78
2022/03/24 01:37:44;;;;;;;29.83;9.73;;;;;;;0.27;58.50;100108.56;5073502;28;20075;-80
2022/03/24 01:40:13;;;;;;;22.45;10.27;;;;;;;0.24;58.88;100092.13;5074414;28;20072;-80
2022/03/24 01:42:40;;;;;;;26.00;9.95;;;;;;;0.24;58.80;100102.41;5073774;28;20044;-78
2022/03/24 01:45:09;;;;;;;23.40;10.07;;;;;;;-0.68;58.90;99966.13;5073187;28;20498;-79
2022/03/24 01:47:36;;;;;;;30.67;9.93;;;;;;;0.09;59.00;100072.59;5074127;28;20406;-80
2022/03/24 01:50:05;;;;;;;28.05;9.73;;;;;;;0.17;58.98;100094.41;5074606;28;20049;-78
2022/03/24 01:52:32;;;;;;;22.55;9.60;;;;;;;0.13;58.95;100086.47;5075469;28;20052;-79
2022/03/24 01:55:00;;;;;;;29.33;10.52;;;;;;;0.10;59.23;100076.06;5074039;28;20521;-80
2022/03/24 01:57:29;;;;;;;25.05;9.98;;;;;;;0.02;59.13;100072.22;5073119;28;20510;-80
2022/03/24 01:59:58;;;;;;;24.20;9.75;;;;;;;0.09;59.28;100080.31;5074199;28;20143;-79
2022/03/24 02:02:25;;;;;;;30.15;10.50;;;;;;;-0.12;59.38;100049.31;5073751;28;20094;-78
2022/03/24 02:04:56;;;;;;;26.08;11.02;;;;;;;0.10;59.49;100094.91;5073647;28;20147;-79
2022/03/24 02:07:32;;;;;;;24.95;10.25;;;;;;;0.09;59.09;100094.84;5072583;28;20071;-79
2022/03/24 02:09:59;;;;;;;28.90;10.43;;;;;;;-0.10;59.49;100057.09;5074121;28;20054;-79
2022/03/24 02:12:27;;;;;;;28.17;9.35;;;;;;;0.05;59.45;100077.53;5072409;28;20106;-79
2022/03/24 02:14:58;;;;;;;25.42;9.55;;;;;;;0.07;59.82;100089.63;5072301;28;20430;-79
2022/03/24 02:17:30;;;;;;;25.58;9.77;;;;;;;0.07;59.67;100088.75;5072946;28;20053;-79
2022/03/24 02:19:58;;;;;;;24.45;10.55;;;;;;;0.00;59.30;100069.59;5073143;28;20118;-79
2022/03/24 02:22:29;;;;;;;27.50;10.32;;;;;;;-0.20;59.57;100032.66;5072965;28;20052;-80
2022/03/24 02:24:56;;;;;;;34.25;9.95;;;;;;;0.05;59.77;100078.41;5074354;28;20238;-78
2022/03/24 02:27:24;;;;;;;31.20;10.10;;;;;;;-0.14;59.60;100044.91;5073448;28;20098;-79
2022/03/24 02:29:51;;;;;;;24.00;9.95;;;;;;;-0.12;59.51;100044.19;5073419;28;20514;-80
2022/03/24 02:32:20;;;;;;;24.23;10.10;;;;;;;0.05;59.86;100072.38;5073319;28;20060;-80
2022/03/24 02:34:47;;;;;;;33.25;11.05;;;;;;;-0.21;59.47;100023.19;5073415;28;20056;-81
2022/03/24 02:37:20;;;;;;;28.80;11.65;;;;;;;-0.19;59.66;100043.78;5073182;28;20052;-81
2022/03/24 02:39:56;;;;;;;32.65;11.23;;;;;;;-0.03;59.70;100067.75;5073346;28;20106;-80
2022/03/24 02:42:29;;;;;;;34.13;12.73;;;;;;;-0.11;59.48;100061.34;5073149;28;20044;-81
2022/03/24 02:45:04;;;;;;;29.83;10.95;;;;;;;-0.09;59.74;100071.69;5073505;28;20060;-81
2022/03/24 02:47:31;;;;;;;33.70;11.82;;;;;;;-0.16;59.84;100057.69;5074309;28;20107;-80
2022/03/24 02:49:59;;;;;;;31.67;11.38;;;;;;;-0.13;60.32;100062.06;5081989;28;20139;-82
2022/03/24 02:52:27;;;;;;;29.50;11.38;;;;;;;-0.13;60.38;100073.25;5055431;28;20045;-79
2022/03/24 02:54:55;;;;;;;35.08;11.93;;;;;;;-0.23;60.14;100065.88;5072064;28;20063;-79
2022/03/24 02:57:22;;;;;;;29.52;12.25;;;;;;;-0.22;60.16;100068.50;5073173;28;20075;-79
2022/03/24 02:59:49;;;;;;;31.20;11.00;;;;;;;-0.20;60.09;100068.59;5073039;28;20056;-79
2022/03/24 03:02:17;;;;;;;31.02;12.57;;;;;;;-0.26;60.66;100055.44;5072789;28;20060;-79
2022/03/24 03:04:53;;;;;;;29.58;11.93;;;;;;;-0.22;60.46;100065.06;5072952;28;20066;-79
2022/03/24 03:07:21;;;;;;;32.78;12.60;;;;;;;-0.27;60.31;100049.44;5072750;28;20060;-79
2022/03/24 03:09:48;;;;;;;28.85;11.38;;;;;;;-0.29;60.52;100050.19;5072141;28;20052;-79
2022/03/24 03:12:18;;;;;;;31.92;11.30;;;;;;;-0.52;60.31;100000.25;5072750;28;20548;-81
2022/03/24 03:14:48;;;;;;;29.73;11.10;;;;;;;-0.41;60.69;100029.91;5072819;28;20052;-80
2022/03/24 03:17:19;;;;;;;33.25;12.02;;;;;;;-0.25;60.54;100052.97;5072839;28;20052;-80
2022/03/24 03:19:46;;;;;;;38.90;12.38;;;;;;;-0.23;60.52;100061.63;5071669;28;20060;-78
2022/03/24 03:22:14;;;;;;;26.27;11.45;;;;;;;-0.23;60.28;100061.63;5073311;28;20049;-80
2022/03/24 03:24:41;;;;;;;24.45;11.07;;;;;;;-0.24;60.67;100065.03;5073752;28;20056;-79
2022/03/24 03:27:08;;;;;;;42.15;13.88;;;;;;;-0.23;60.43;100064.19;5072747;28;20091;-80
2022/03/24 03:29:36;;;;;;;35.92;11.88;;;;;;;-0.32;60.60;100027.81;5072589;28;20102;-80
2022/03/24 03:32:03;;;;;;;31.55;11.73;;;;;;;-0.17;60.34;100039.63;5072660;28;20056;-79
2022/03/24 03:34:31;;;;;;;29.23;11.82;;;;;;;-0.18;60.59;100036.19;5071294;28;20056;-81
2022/03/24 03:36:59;;;;;;;31.65;11.40;;;;;;;-0.23;60.17;100011.97;5072565;28;20083;-80
2022/03/24 03:39:27;;;;;;;30.50;12.25;;;;;;;-0.18;59.78;100007.06;5073853;28;20079;-81
2022/03/24 03:41:54;;;;;;;35.13;11.85;;;;;;;-0.18;59.76;99994.22;5074167;28;20143;-80
2022/03/24 03:44:21;;;;;;;31.95;12.27;;;;;;;0.13;59.16;100048.81;5075423;28;20072;-81
2022/03/24 03:46:49;;;;;;;28.88;11.82;;;;;;;0.09;59.34;100015.22;5086594;28;20126;-80
2022/03/24 03:49:16;;;;;;;33.63;10.77;;;;;;;0.30;59.13;100049.63;5097360;28;20032;-79
2022/03/24 03:51:43;;;;;;;30.15;11.88;;;;;;;0.23;58.23;100018.44;5078711;28;20155;-82
2022/03/24 03:54:10;;;;;;;29.40;11.35;;;;;;;0.32;58.03;100014.63;5072632;28;20121;-81
2022/03/24 03:56:38;;;;;;;41.35;12.15;;;;;;;0.52;58.34;100018.09;5072296;28;20110;-82
2022/03/24 03:59:06;;;;;;;29.05;12.52;;;;;;;0.40;57.85;99984.97;5072318;28;20461;-79
2022/03/24 04:01:34;;;;;;;35.88;12.63;;;;;;;0.71;57.82;100034.34;5072303;28;20133;-79
2022/03/24 04:04:02;;;;;;;30.98;12.60;;;;;;;0.75;58.20;100031.09;5072443;28;20143;-78
2022/03/24 04:06:29;;;;;;;31.05;12.75;;;;;;;0.84;57.55;100038.34;5076538;28;20484;-79
2022/03/24 04:08:56;;;;;;;31.02;12.60;;;;;;;0.96;57.15;100036.34;5077098;28;20482;-80
2022/03/24 04:11:23;;;;;;;31.30;12.05;;;;;;;1.13;57.11;100037.09;5077892;28;20050;-81
2022/03/24 04:13:50;;;;;;;27.92;11.32;;;;;;;1.15;57.04;100020.03;5074834;28;20060;-80
2022/03/24 04:16:17;;;;;;;29.23;12.48;;;;;;;1.04;56.51;99954.38;5072716;28;20425;-80
2022/03/24 04:18:49;;;;;;;32.10;12.32;;;;;;;1.47;56.90;99999.94;5072850;28;20052;-78
2022/03/24 04:21:17;;;;;;;28.58;12.55;;;;;;;1.73;56.19;100029.34;5073444;28;20052;-79
2022/03/24 04:23:45;;;;;;;32.17;13.32;;;;;;;1.97;55.99;100014.00;5074541;28;20125;-79
2022/03/24 04:26:12;;;;;;;48.67;14.63;;;;;;;2.19;55.08;100020.88;5076215;28;20078;-83
2022/03/24 04:28:40;;;;;;;36.10;14.07;;;;;;;2.20;54.56;99976.25;5078645;28;20052;-84
2022/03/24 04:31:08;;;;;;;34.97;13.13;;;;;;;2.67;54.01;100011.59;5057784;28;20147;-80
2022/03/24 04:33:35;;;;;;;38.80;13.90;;;;;;;2.87;53.49;99993.38;5075572;28;20129;-81
2022/03/24 04:36:04;;;;;;;29.35;12.75;;;;;;;2.82;52.88;99951.94;5076055;28;20126;-81
2022/03/24 04:38:31;;;;;;;40.35;14.75;;;;;;;3.32;52.44;100013.03;5075634;28;20059;-81
2022/03/24 04:42:06;;;;;;;37.28;12.63;;;;;;;3.13;51.82;99947.84;5011046;28;20471;-78
2022/03/24 04:45:48;;;;;;;33.97;15.02;;;;;;;3.27;50.66;99919.94;5075425;28;20051;-81
2022/03/24 04:48:24;;;;;;;37.08;14.13;;;;;;;3.65;50.38;99954.75;5075753;28;20048;-81
2022/03/24 04:50:57;;;;;;;34.13;13.80;;;;;;;3.67;49.59;99921.22;5075601;28;20049;-79
2022/03/24 04:53:24;;;;;;;30.30;13.30;;;;;;;4.23;49.10;100002.25;5075317;28;20086;-77
2022/03/24 04:55:50;;;;;;;52.55;19.80;;;;;;;4.39;48.50;99997.53;5075617;28;20053;-79
2022/03/24 04:58:18;;;;;;;40.60;16.55;;;;;;;4.47;48.04;99989.22;5075300;28;20056;-80
2022/03/24 05:00:44;;;;;;;38.45;16.33;;;;;;;4.68;47.81;99990.66;5074841;28;20441;-80
2022/03/24 05:03:11;;;;;;;37.00;16.15;;;;;;;4.92;47.48;99998.25;5075209;28;20091;-79
2022/03/24 05:05:38;;;;;;;31.73;14.38;;;;;;;5.06;46.32;100009.88;5073403;28;20076;-78
2022/03/24 05:08:06;;;;;;;37.00;14.73;;;;;;;5.15;45.75;99985.94;5075105;28;20056;-80
2022/03/24 05:10:34;;;;;;;30.00;14.07;;;;;;;5.41;45.54;99999.56;5075186;28;20418;-79
2022/03/24 05:13:01;;;;;;;29.98;13.15;;;;;;;5.54;45.01;100004.25;5064428;28;20052;-77
2022/03/24 05:15:28;;;;;;;34.60;16.45;;;;;;;5.73;45.40;99987.44;5073548;28;20060;-78
2022/03/24 05:17:55;;;;;;;32.47;14.68;;;;;;;5.84;44.45;99987.72;5075172;28;20102;-80
2022/03/24 05:20:23;;;;;;;39.55;15.48;;;;;;;6.08;44.66;99996.94;5074848;28;20625;-79
2022/03/24 05:22:50;;;;;;;42.97;15.95;;;;;;;6.15;44.78;99981.56;5074416;28;20110;-80
2022/03/24 05:25:17;;;;;;;38.97;16.80;;;;;;;6.23;44.03;99997.31;5073892;28;20395;-80
2022/03/24 05:28:04;;;;;;;37.33;16.30;;;;;;;6.19;44.48;99985.09;5075528;28;20055;-81
2022/03/24 05:30:31;;;;;;;43.60;19.58;;;;;;;6.20;43.52;99968.72;5075129;28;20106;-78
2022/03/24 05:32:58;;;;;;;44.00;20.67;;;;;;;6.33;43.08;99990.63;5074454;28;20063;-80
2022/03/24 05:35:25;;;;;;;38.38;20.27;;;;;;;6.29;42.80;99960.25;5075394;28;20506;-80
2022/03/24 05:37:51;;;;;;;40.03;19.40;;;;;;;6.39;42.73;99979.47;5073621;28;20502;-79
2022/03/24 05:40:18;;;;;;;40.05;19.75;;;;;;;6.28;42.91;99979.25;5075015;28;20053;-81
2022/03/24 05:42:45;;;;;;;45.72;19.23;;;;;;;6.44;43.41;99986.53;5065880;28;20053;-78
2022/03/24 05:45:12;;;;;;;45.30;20.50;;;;;;;6.41;42.93;99972.59;5070525;28;20091;-81
2022/03/24 05:47:42;;;;;;;42.05;20.75;;;;;;;6.41;43.08;99970.91;5074811;28;20524;-81
2022/03/24 05:50:13;;;;;;;44.30;19.73;;;;;;;6.10;42.99;99914.88;5058299;28;20083;-79
2022/03/24 05:53:03;;;;;;;40.88;19.17;;;;;;;6.48;42.94;99993.56;5066765;28;20053;-80
2022/03/24 05:55:30;;;;;;;48.35;18.65;;;;;;;6.48;42.63;99990.94;5058995;28;20541;-79
2022/03/24 05:57:57;;;;;;;47.05;19.20;;;;;;;6.29;42.53;99950.75;5074534;28;20110;-80
2022/03/24 06:00:24;;;;;;;44.97;19.00;;;;;;;6.51;42.36;99990.13;5074264;28;20082;-80
2022/03/24 06:02:53;;;;;;;40.05;17.38;;;;;;;6.33;42.08;99995.81;5074977;28;20568;-80
2022/03/24 06:05:22;;;;;;;36.58;16.40;;;;;;;6.34;42.20;99995.81;5074396;28;20056;-78
2022/03/24 06:07:49;;;;;;;34.58;15.48;;;;;;;6.08;41.55;99926.91;5074225;28;20100;-80
2022/03/24 06:10:16;;;;;;;37.33;15.15;;;;;;;6.52;41.61;100005.75;5072714;28;20079;-79
2022/03/24 06:12:47;;;;;;;31.08;15.13;;;;;;;6.53;41.06;100002.28;5074222;28;20155;-78
2022/03/24 06:15:14;;;;;;;32.63;13.93;;;;;;;6.54;41.06;99998.00;5075129;28;20067;-80
2022/03/24 06:17:41;;;;;;;32.50;14.82;;;;;;;6.59;40.86;99998.09;5075499;28;20060;-79
2022/03/24 06:20:09;;;;;;;31.90;14.25;;;;;;;6.60;40.67;99981.66;5086724;28;20032;-79
2022/03/24 06:22:42;;;;;;;28.20;13.75;;;;;;;6.76;40.35;99989.81;5081050;28;20052;-78
2022/03/24 06:25:09;;;;;;;30.10;13.68;;;;;;;6.76;40.39;99995.00;5075262;28;20135;-81
2022/03/24 06:27:36;;;;;;;39.80;16.67;;;;;;;6.87;40.11;99992.63;5074833;28;20052;-79
2022/03/24 06:30:05;;;;;;;43.65;17.98;;;;;;;6.93;40.09;99976.31;5073982;28;20075;-78
2022/03/24 06:32:32;;;;;;;51.08;20.85;;;;;;;6.85;40.14;99954.50;5074065;28;20051;-78
2022/03/24 06:35:02;;;;;;;52.20;21.88;;;;;;;7.13;39.52;99997.47;5072739;28;20064;-80
2022/03/24 06:37:30;;;;;;;51.97;22.65;;;;;;;7.23;39.81;100009.81;5059543;28;20084;-80
2022/03/24 06:39:57;;;;;;;44.78;17.05;;;;;;;7.09;39.40;99952.38;5057842;28;20045;-79
2022/03/24 06:42:24;;;;;;;39.30;18.08;;;;;;;7.28;39.29;99992.56;5057217;28;20052;-80
2022/03/24 06:44:51;;;;;;;33.88;15.13;;;;;;;7.34;39.07;99984.88;5058143;28;20052;-78
2022/03/24 06:47:18;;;;;;;27.95;12.70;;;;;;;7.41;38.75;99990.19;5056688;28;20130;-78
2022/03/24 06:49:45;;;;;;;25.00;11.82;;;;;;;7.28;39.05;99981.31;5054096;28;20524;-78
2022/03/24 06:52:12;;;;;;;28.48;11.55;;;;;;;7.36;38.84;100008.31;5053973;28;20049;-79
2022/03/24 06:54:39;;;;;;;19.70;10.88;;;;;;;7.24;38.84;99988.16;5054035;28;20048;-79
2022/03/24 06:57:07;;;;;;;24.75;11.52;;;;;;;7.50;38.50;100000.75;5054028;28;20063;-79
2022/03/24 06:59:34;;;;;;;29.02;11.18;;;;;;;7.36;38.50;99952.00;5052461;28;20049;-79
2022/03/24 07:02:05;;;;;;;21.05;10.63;;;;;;;7.60;38.00;100000.06;5053647;28;20506;-79
2022/03/24 07:04:32;;;;;;;23.70;10.85;;;;;;;7.57;37.98;99979.22;5052319;28;20490;-77
2022/03/24 07:06:59;;;;;;;21.48;10.00;;;;;;;7.76;37.51;100006.41;5052075;28;20045;-79
2022/03/24 07:09:26;;;;;;;20.55;10.38;;;;;;;7.85;37.34;99990.97;5052970;28;20060;-79
2022/03/24 07:11:54;;;;;;;22.38;10.48;;;;;;;7.87;37.20;99968.47;5053284;28;20053;-78
2022/03/24 07:14:21;;;;;;;24.02;10.05;;;;;;;8.14;37.27;99987.94;5053686;28;20060;-79
2022/03/24 07:16:48;;;;;;;23.52;10.77;;;;;;;8.37;36.07;100007.38;5055829;28;20060;-78
2022/03/24 07:19:15;;;;;;;19.67;10.57;;;;;;;8.36;36.25;99989.13;5053612;28;20049;-80
2022/03/24 07:21:42;;;;;;;23.23;9.90;;;;;;;8.32;35.97;99967.38;5051700;28;20102;-81
2022/03/24 07:24:10;;;;;;;18.67;9.88;;;;;;;8.58;35.42;100000.75;5053555;28;20145;-79
2022/03/24 07:26:38;;;;;;;21.90;9.57;;;;;;;8.59;35.83;99992.09;5051923;28;20495;-79
2022/03/24 07:29:06;;;;;;;22.73;10.98;;;;;;;8.79;35.08;100013.19;5051810;28;20051;-78
2022/03/24 07:31:33;;;;;;;24.50;10.52;;;;;;;8.68;35.31;99987.00;5051152;28;20100;-78
2022/03/24 07:34:01;;;;;;;21.42;9.55;;;;;;;8.82;35.28;100002.81;5052993;28;20074;-78
2022/03/24 07:36:28;;;;;;;20.02;9.93;;;;;;;9.01;35.10;100007.41;5051306;28;20061;-79
2022/03/24 07:38:57;;;;;;;21.60;10.20;;;;;;;9.09;34.43;100011.81;5051642;28;20063;-78
2022/03/24 07:41:24;;;;;;;20.20;9.98;;;;;;;9.19;34.63;100006.72;5051536;28;20049;-79
2022/03/24 07:43:51;;;;;;;17.80;8.43;;;;;;;9.31;33.94;100012.94;5056863;28;20434;-79
2022/03/24 07:46:18;;;;;;;17.63;8.82;;;;;;;9.12;33.76;100009.22;5064188;28;20532;-79
2022/03/24 07:48:49;;;;;;;17.42;9.23;;;;;;;8.97;33.34;100008.22;5052616;28;20055;-78
2022/03/24 07:51:16;;;;;;;19.15;9.45;;;;;;;8.97;33.79;99981.25;5051179;28;20734;-78
2022/03/24 07:53:49;;;;;;;18.52;9.40;;;;;;;9.20;33.33;100000.66;5051407;28;20071;-79
2022/03/24 07:56:22;;;;;;;23.65;9.15;;;;;;;9.16;33.71;99980.66;5051778;28;20068;-79
2022/03/24 07:58:49;;;;;;;17.45;8.73;;;;;;;9.08;33.48;99987.50;5054352;28;20064;-78
2022/03/24 08:01:24;;;;;;;18.35;8.38;;;;;;;8.95;33.28;99978.66;5056221;28;20049;-81
2022/03/24 08:03:53;;;;;;;20.38;8.50;;;;;;;8.84;33.05;99968.97;5055654;28;20080;-80
2022/03/24 08:06:23;;;;;;;17.45;8.73;;;;;;;8.99;32.98;99998.69;5054768;28;20540;-78
2022/03/24 08:08:50;;;;;;;16.10;8.05;;;;;;;9.02;32.99;99996.09;5055990;28;20053;-78
2022/03/24 08:11:17;;;;;;;16.08;8.60;;;;;;;9.03;32.94;99986.56;5055504;28;20069;-79
2022/03/24 08:13:47;;;;;;;17.77;8.38;;;;;;;9.13;32.48;99996.22;5055321;28;20070;-78
2022/03/24 08:16:15;;;;;;;18.90;8.25;;;;;;;9.18;32.70;99991.97;5057828;28;20067;-80
2022/03/24 08:18:42;;;;;;;15.55;8.38;;;;;;;9.19;32.37;100001.53;5055087;28;20068;-78
2022/03/24 08:21:08;;;;;;;18.42;8.90;;;;;;;9.22;32.82;99990.25;5075500;28;20516;-78
2022/03/24 08:23:40;;;;;;;17.63;9.02;;;;;;;9.17;32.11;99973.69;5075822;28;20059;-78
2022/03/24 08:26:09;;;;;;;20.73;8.93;;;;;;;9.34;31.99;99986.91;5075365;28;20530;-78
2022/03/24 08:28:36;;;;;;;21.27;8.68;;;;;;;9.29;31.88;99979.06;5075837;28;20049;-79
2022/03/24 08:31:03;;;;;;;21.13;8.93;;;;;;;9.37;31.70;99990.41;5077963;28;20122;-78
2022/03/24 08:33:30;;;;;;;21.13;9.15;;;;;;;9.44;32.25;99983.50;5076038;28;20054;-78
2022/03/24 08:35:57;;;;;;;20.67;9.10;;;;;;;9.55;31.34;99986.22;5075789;28;20490;-78
2022/03/24 08:38:24;;;;;;;19.40;8.70;;;;;;;9.61;31.80;99986.28;5075451;28;20505;-78
2022/03/24 08:40:52;;;;;;;18.48;7.97;;;;;;;9.67;31.46;99980.25;5075502;28;20063;-79
2022/03/24 08:43:18;;;;;;;14.40;6.72;;;;;;;9.81;30.55;99989.97;5075349;28;20048;-78
2022/03/24 08:45:45;;;;;;;15.35;7.65;;;;;;;9.63;29.97;99955.88;5075695;28;20489;-77
2022/03/24 08:48:12;;;;;;;21.40;8.38;;;;;;;9.93;30.01;99970.91;5076327;28;20052;-79
2022/03/24 08:50:39;;;;;;;12.82;6.00;;;;;;;9.98;29.48;99968.31;5077706;28;20125;-80
2022/03/24 08:53:06;;;;;;;11.68;6.25;;;;;;;10.02;29.77;99978.81;5078932;28;20509;-78
2022/03/24 08:55:34;;;;;;;16.25;7.47;;;;;;;10.01;29.74;99950.09;5093562;28;20108;-78
2022/03/24 08:58:02;;;;;;;15.43;6.97;;;;;;;10.10;29.31;99950.16;5095435;28;20075;-78
2022/03/24 09:00:29;;;;;;;22.17;6.05;;;;;;;10.18;28.46;99968.50;5077521;28;20521;-79
2022/03/24 09:02:59;;;;;;;11.02;4.60;;;;;;;10.06;28.19;99940.56;5075599;28;20143;-79
2022/03/24 09:05:26;;;;;;;14.68;5.50;;;;;;;10.25;28.84;99957.22;5075878;28;20056;-80
2022/03/24 09:07:53;;;;;;;11.55;6.13;;;;;;;10.44;28.39;99974.75;5074420;28;20055;-80
2022/03/24 09:10:28;;;;;;;13.32;6.75;;;;;;;10.52;28.45;99973.94;5075747;28;20049;-76
2022/03/24 09:12:56;;;;;;;15.35;7.15;;;;;;;10.60;28.07;99973.13;5074667;28;20485;-77
2022/03/24 09:15:24;;;;;;;17.08;7.35;;;;;;;10.70;28.11;99967.94;5074917;28;20552;-79
2022/03/24 09:17:50;;;;;;;16.33;7.60;;;;;;;10.73;27.61;99952.25;5077878;28;20056;-80
2022/03/24 09:20:22;;;;;;;18.27;7.83;;;;;;;10.91;27.86;99965.41;5078491;28;20044;-80
2022/03/24 09:22:50;;;;;;;14.95;7.00;;;;;;;11.05;27.78;99965.44;5074861;28;20147;-80
2022/03/24 09:25:19;;;;;;;21.17;7.88;;;;;;;11.13;26.96;99970.72;5073424;28;20076;-81
2022/03/24 09:27:46;;;;;;;15.98;7.63;;;;;;;11.14;27.13;99962.88;5075061;28;20044;-79
2022/03/24 09:30:15;;;;;;;21.08;7.65;;;;;;;11.12;27.09;99968.94;5073529;28;20063;-78
2022/03/24 09:32:43;;;;;;;13.10;6.43;;;;;;;11.24;26.40;99972.47;5074085;28;20440;-79
2022/03/24 09:35:10;;;;;;;19.92;7.63;;;;;;;11.27;26.54;99959.41;5074684;28;20567;-78
2022/03/24 09:37:37;;;;;;;17.85;7.82;;;;;;;11.30;27.12;99942.84;5065829;28;20430;-79
2022/03/24 09:40:06;;;;;;;15.45;7.25;;;;;;;11.34;26.46;99964.66;5066347;28;20088;-78
2022/03/24 09:42:34;;;;;;;18.30;7.30;;;;;;;11.30;26.61;99958.53;5058788;28;20477;-78
2022/03/24 09:45:03;;;;;;;19.17;8.00;;;;;;;11.08;26.39;99939.34;5054448;28;20507;-79
2022/03/24 09:47:31;;;;;;;16.83;7.25;;;;;;;11.26;26.61;99956.78;5064687;28;20052;-78
2022/03/24 09:49:59;;;;;;;15.23;7.65;;;;;;;11.27;26.46;99956.81;5074080;28;20067;-78
2022/03/24 09:52:28;;;;;;;16.90;7.35;;;;;;;11.14;26.36;99913.22;5074383;28;20052;-77
2022/03/24 09:54:58;;;;;;;22.98;8.38;;;;;;;11.43;27.02;99947.22;5074139;28;20163;-78
2022/03/24 09:57:26;;;;;;;18.85;7.00;;;;;;;11.55;27.60;99950.72;5073800;28;20049;-78
2022/03/24 09:59:54;;;;;;;14.25;7.45;;;;;;;11.37;28.05;99933.28;5074622;28;20052;-78
2022/03/24 10:02:21;;;;;;;17.85;7.65;;;;;;;11.45;28.02;99947.25;5074007;28;20075;-78
2022/03/24 10:04:52;;;;;;;11.73;6.30;;;;;;;11.43;27.42;99947.22;5074048;28;20484;-78
2022/03/24 10:07:23;;;;;;;12.77;6.82;;;;;;;11.43;27.45;99935.91;5074568;28;20052;-77
2022/03/24 10:09:53;;;;;;;12.75;5.65;;;;;;;11.43;27.08;99946.38;5073734;28;20044;-79
2022/03/24 10:12:33;;;;;;;11.98;6.03;;;;;;;11.39;27.16;99955.06;5073802;28;20052;-80
2022/03/24 10:15:09;;;;;;;8.93;4.40;;;;;;;11.29;26.82;99948.94;5073817;28;20060;-79
2022/03/24 10:17:38;;;;;;;6.30;3.75;;;;;;;11.28;26.06;99926.28;5076542;28;20053;-77
2022/03/24 10:20:12;;;;;;;7.57;4.00;;;;;;;11.32;25.41;99953.34;5077268;28;20143;-78
2022/03/24 10:22:39;;;;;;;7.03;3.70;;;;;;;11.18;25.40;99943.69;5074281;28;20048;-79
2022/03/24 10:25:20;;;;;;;6.28;3.35;;;;;;;11.05;25.17;99913.16;5078972;28;20512;-80
2022/03/24 10:28:11;;;;;;;6.00;4.00;;;;;;;11.36;25.56;99947.25;5080362;28;20049;-79
2022/03/24 10:30:53;;;;;;;8.82;4.15;;;;;;;11.23;25.85;99918.44;5073659;28;20052;-78
2022/03/24 10:33:35;;;;;;;7.25;3.90;;;;;;;11.16;26.03;99906.22;5074864;28;20155;-77
2022/03/24 10:36:17;;;;;;;6.63;3.85;;;;;;;11.51;25.83;99951.59;5061321;28;20438;-77
2022/03/24 10:38:54;;;;;;;11.52;4.20;;;;;;;11.49;26.24;99925.44;5067373;28;20068;-79
2022/03/24 10:41:27;;;;;;;5.88;3.67;;;;;;;11.61;26.58;99946.34;5072317;28;20052;-79
2022/03/24 10:43:56;;;;;;;7.20;3.72;;;;;;;11.32;25.39;99904.50;5073251;28;20048;-79
2022/03/24 10:46:27;;;;;;;5.70;2.70;;;;;;;11.43;25.38;99959.44;5071031;28;20048;-80
2022/03/24 10:48:55;;;;;;;4.38;3.00;;;;;;;11.38;25.38;99948.97;5062165;28;20577;-78
2022/03/24 10:51:30;;;;;;;8.07;3.92;;;;;;;11.20;25.55;99912.31;5053108;28;20091;-78
2022/03/24 10:54:38;;;;;;;7.63;3.95;;;;;;;11.42;25.66;99952.44;5053014;28;20059;-79
2022/03/24 10:57:20;;;;;;;7.45;3.20;;;;;;;11.23;25.39;99928.91;5052447;28;20464;-79
2022/03/24 10:59:54;;;;;;;5.78;3.40;;;;;;;11.42;25.39;99949.84;5052757;28;20503;-82
2022/03/24 11:02:22;;;;;;;6.03;3.60;;;;;;;11.39;24.80;99945.47;5053453;28;20048;-82
2022/03/24 11:04:50;;;;;;;8.35;4.07;;;;;;;11.43;24.86;99943.75;5053063;28;20113;-79
2022/03/24 11:07:27;;;;;;;12.38;4.15;;;;;;;11.35;24.69;99911.47;5052776;28;20430;-82
2022/03/24 11:09:54;;;;;;;7.97;3.72;;;;;;;11.57;24.77;99951.59;5052990;28;20071;-78
2022/03/24 11:12:31;;;;;;;6.32;3.10;;;;;;;11.59;23.94;99950.72;5052811;28;20140;-79
2022/03/24 11:15:01;;;;;;;6.07;3.55;;;;;;;11.56;24.17;99955.97;5052992;28;20140;-78
2022/03/24 11:17:31;;;;;;;5.70;3.53;;;;;;;11.49;24.12;99951.59;5055467;28;20102;-78
2022/03/24 11:20:04;;;;;;;7.13;3.57;;;;;;;11.35;24.05;99945.47;5053155;28;20057;-79
2022/03/24 11:23:00;;;;;;;7.38;3.30;;;;;;;11.18;24.23;99942.81;5054735;28;20309;-79
2022/03/24 11:25:29;;;;;;;6.18;2.95;;;;;;;11.36;23.55;99952.47;5055325;28;20041;-79
2022/03/24 11:27:57;;;;;;;6.32;2.60;;;;;;;11.24;22.60;99922.78;5067596;28;20057;-78
2022/03/24 11:30:25;;;;;;;4.38;2.92;;;;;;;11.36;23.20;99944.63;5075729;28;20033;-78
2022/03/24 11:32:54;;;;;;;5.93;3.03;;;;;;;11.46;22.81;99956.81;5062283;28;20049;-79